Time;durP1;ratioP1;P1;durP2;ratioP2;P2;SDS_P1;SDS_P2;PMS_P1;PMS_P2;Temp;Humidity;BMP_temperature;BMP_pressure;BME280_temperature;BME280_humidity;BME280_pressure;Samples;Min_cycle;Max_cycle;Signal;HPM_P1;HPM_P2
2023/04/10 00:00:31;;;;;;;0.20;0.20;;;4.90;99.90;;;;;;5038148;28;20398;-76
2023/04/10 00:03:00;;;;;;;0.20;0.20;;;4.90;99.90;;;;;;5055448;28;20039;-76
2023/04/10 00:05:26;;;;;;;0.20;0.20;;;4.80;99.90;;;;;;5038315;28;20028;-75
2023/04/10 00:07:52;;;;;;;0.20;0.20;;;4.90;99.90;;;;;;5056122;28;20032;-76
2023/04/10 00:10:18;;;;;;;0.20;0.20;;;4.90;99.90;;;;;;5036149;28;20028;-76
2023/04/10 00:12:44;;;;;;;0.10;0.10;;;5.00;99.90;;;;;;5055227;28;20021;-76
2023/04/10 00:15:10;;;;;;;0.17;0.17;;;5.10;99.90;;;;;;5055600;28;20387;-77
2023/04/10 00:17:35;;;;;;;0.20;0.20;;;5.20;99.90;;;;;;5054311;28;20025;-77
2023/04/10 00:20:01;;;;;;;0.20;0.20;;;5.20;99.90;;;;;;5055560;28;20100;-75
2023/04/10 00:22:26;;;;;;;0.20;0.20;;;5.30;99.90;;;;;;5056029;28;20021;-76
2023/04/10 00:24:54;;;;;;;0.30;0.30;;;5.50;99.90;;;;;;5055174;28;20060;-76
2023/04/10 00:27:20;;;;;;;0.20;0.20;;;5.50;99.90;;;;;;5037164;28;20039;-77
2023/04/10 00:29:45;;;;;;;0.20;0.20;;;5.60;99.90;;;;;;5055896;28;20020;-76
2023/04/10 00:32:11;;;;;;;0.20;0.20;;;5.80;99.90;;;;;;5037697;28;20025;-76
2023/04/10 00:34:36;;;;;;;0.13;0.13;;;5.90;99.90;;;;;;5055783;28;20054;-76
2023/04/10 00:37:02;;;;;;;0.20;0.20;;;6.00;99.90;;;;;;5036861;28;20029;-76
2023/04/10 00:39:27;;;;;;;0.10;0.10;;;6.10;99.90;;;;;;5037663;28;20025;-77
2023/04/10 00:41:53;;;;;;;0.20;0.20;;;6.20;99.90;;;;;;5037365;28;20029;-77
2023/04/10 00:44:18;;;;;;;0.10;0.10;;;6.20;99.90;;;;;;5055544;28;20056;-76
2023/04/10 00:46:46;;;;;;;0.20;0.20;;;6.30;99.90;;;;;;5037142;28;20501;-77
2023/04/10 00:49:12;;;;;;;0.20;0.20;;;6.30;99.90;;;;;;5054763;28;20108;-76
2023/04/10 00:51:38;;;;;;;0.10;0.10;;;6.30;99.90;;;;;;5055312;28;20095;-77
2023/04/10 00:54:03;;;;;;;0.10;0.10;;;6.40;99.90;;;;;;5054983;28;20021;-76
2023/04/10 00:56:32;;;;;;;0.20;0.20;;;6.40;99.90;;;;;;5055241;28;20025;-76
2023/04/10 00:58:58;;;;;;;0.20;0.20;;;6.40;99.90;;;;;;5054915;28;20024;-77
2023/04/10 01:01:24;;;;;;;0.10;0.10;;;6.40;99.90;;;;;;5062149;22;20037;-77
2023/04/10 01:03:50;;;;;;;0.10;0.10;;;6.50;99.90;;;;;;5054726;28;20390;-76
2023/04/10 01:06:41;;;;;;;0.10;0.10;;;6.50;99.90;;;;;;5042051;28;20075;-76
2023/04/10 01:09:54;;;;;;;0.10;0.10;;;6.50;99.90;;;;;;5017756;28;20018;-76
2023/04/10 01:12:49;;;;;;;0.20;0.20;;;6.60;99.90;;;;;;5031572;28;20143;-75
2023/04/10 01:15:17;;;;;;;0.30;0.30;;;6.60;99.90;;;;;;5034649;28;20386;-75
2023/04/10 01:18:08;;;;;;;0.20;0.20;;;6.60;99.90;;;;;;5035157;28;20108;-76
2023/04/10 01:20:40;;;;;;;0.10;0.10;;;6.60;99.90;;;;;;5034129;28;20057;-77
2023/04/10 01:23:27;;;;;;;0.13;0.13;;;6.70;99.90;;;;;;5034673;28;20028;-76
2023/04/10 01:25:58;;;;;;;0.10;0.10;;;6.60;99.90;;;;;;5034540;28;20032;-77
2023/04/10 01:28:48;;;;;;;0.20;0.20;;;6.60;99.90;;;;;;5047260;28;20482;-77
2023/04/10 01:31:22;;;;;;;0.20;0.20;;;6.60;99.90;;;;;;5036347;28;20040;-77
2023/04/10 01:33:50;;;;;;;;;;;6.60;99.90;;;;;;5036925;28;20394;-75
2023/04/10 01:36:22;;;;;;;0.22;0.22;;;6.50;99.90;;;;;;5035637;28;19909;-76
2023/04/10 01:38:50;;;;;;;0.10;0.10;;;6.40;99.90;;;;;;5054582;28;20028;-76
2023/04/10 01:41:18;;;;;;;0.15;0.15;;;6.40;99.90;;;;;;5085788;22;20045;-77
2023/04/10 01:43:47;;;;;;;0.10;0.10;;;6.30;99.90;;;;;;5035986;28;20033;-77
2023/04/10 01:46:16;;;;;;;0.10;0.10;;;6.30;99.90;;;;;;5054421;28;20490;-77
2023/04/10 01:48:43;;;;;;;0.20;0.20;;;6.20;99.90;;;;;;5054390;28;20025;-76
2023/04/10 01:51:10;;;;;;;0.17;0.17;;;6.10;99.90;;;;;;5036283;28;20033;-76
2023/04/10 01:53:37;;;;;;;0.20;0.20;;;6.00;99.90;;;;;;5053922;28;20100;-77
2023/04/10 01:56:03;;;;;;;0.20;0.20;;;6.00;99.90;;;;;;5054185;28;20052;-77
2023/04/10 01:58:29;;;;;;;0.20;0.20;;;5.90;99.90;;;;;;5054065;28;20025;-76
2023/04/10 02:00:55;;;;;;;0.20;0.20;;;5.90;99.90;;;;;;5053958;28;20032;-76
2023/04/10 02:03:20;;;;;;;0.20;0.20;;;5.90;99.90;;;;;;5054257;28;20495;-76
2023/04/10 02:06:14;;;;;;;0.10;0.10;;;5.90;99.90;;;;;;5053510;28;20028;-76
2023/04/10 02:08:48;;;;;;;0.20;0.20;;;5.80;99.90;;;;;;5036284;28;20025;-76
2023/04/10 02:11:32;;;;;;;;;;;5.80;99.90;;;;;;5054479;28;20378;-76
2023/04/10 02:14:02;;;;;;;0.20;0.20;;;5.70;99.90;;;;;;5053911;28;19905;-75
2023/04/10 02:16:30;;;;;;;0.10;0.10;;;5.80;99.90;;;;;;5054519;28;20029;-76
2023/04/10 02:18:59;;;;;;;0.20;0.20;;;5.80;99.90;;;;;;5053858;28;20032;-76
2023/04/10 02:21:26;;;;;;;0.20;0.20;;;5.80;99.90;;;;;;5035360;28;20025;-76
2023/04/10 02:24:00;;;;;;;0.10;0.10;;;5.80;99.90;;;;;;5035540;28;20036;-76
2023/04/10 02:26:28;;;;;;;0.10;0.10;;;5.80;99.90;;;;;;5054018;28;20075;-76
2023/04/10 02:28:57;;;;;;;0.20;0.20;;;5.80;99.90;;;;;;5053511;28;20033;-76
2023/04/10 02:31:23;;;;;;;0.20;0.20;;;5.80;99.90;;;;;;5052910;28;20021;-76
2023/04/10 02:33:49;;;;;;;0.20;0.20;;;5.80;99.90;;;;;;5053536;28;20103;-76
2023/04/10 02:36:14;;;;;;;0.20;0.20;;;5.80;99.90;;;;;;5053706;28;20496;-76
2023/04/10 02:38:40;;;;;;;0.20;0.20;;;5.80;99.90;;;;;;5053421;28;20036;-76
2023/04/10 02:41:05;;;;;;;0.20;0.20;;;5.80;99.90;;;;;;5052716;28;20486;-76
2023/04/10 02:43:31;;;;;;;0.20;0.20;;;5.80;99.90;;;;;;5053902;28;20033;-76
2023/04/10 02:45:56;;;;;;;0.20;0.20;;;5.80;99.90;;;;;;5053559;28;20029;-76
2023/04/10 02:48:22;;;;;;;0.20;0.20;;;5.70;99.90;;;;;;5053775;28;20025;-76
2023/04/10 02:50:47;;;;;;;0.20;0.20;;;5.60;99.90;;;;;;5035343;28;20036;-75
2023/04/10 02:53:15;;;;;;;0.20;0.20;;;5.50;99.90;;;;;;5052829;28;20035;-76
2023/04/10 02:55:40;;;;;;;0.10;0.10;;;5.50;99.90;;;;;;5035462;28;20032;-76
2023/04/10 02:58:06;;;;;;;0.20;0.20;;;5.50;99.90;;;;;;5051372;28;20394;-77
2023/04/10 03:00:32;;;;;;;0.20;0.20;;;5.50;99.90;;;;;;5047690;28;20032;-76
2023/04/10 03:02:58;;;;;;;0.20;0.20;;;5.50;99.90;;;;;;5035332;28;20029;-76
2023/04/10 03:05:23;;;;;;;0.10;0.10;;;5.40;99.90;;;;;;5039072;28;20033;-76
2023/04/10 03:07:49;;;;;;;0.20;0.20;;;5.40;99.90;;;;;;5024727;28;20039;-76
2023/04/10 03:10:14;;;;;;;0.10;0.10;;;5.40;99.90;;;;;;5052908;28;20040;-76
2023/04/10 03:12:42;;;;;;;0.20;0.20;;;5.40;99.90;;;;;;5053052;28;20025;-76
2023/04/10 03:15:08;;;;;;;0.20;0.20;;;5.40;99.90;;;;;;5052966;28;20017;-76
2023/04/10 03:17:34;;;;;;;0.10;0.10;;;5.50;99.90;;;;;;5052682;28;20021;-76
2023/04/10 03:19:59;;;;;;;0.13;0.13;;;5.50;99.90;;;;;;5052037;28;20040;-76
2023/04/10 03:22:26;;;;;;;0.13;0.13;;;5.60;99.90;;;;;;5051982;23;20040;-76
2023/04/10 03:24:51;;;;;;;0.10;0.10;;;5.60;99.90;;;;;;5053031;28;20021;-76
2023/04/10 03:27:17;;;;;;;0.10;0.10;;;5.70;99.90;;;;;;5034116;28;20017;-76
2023/04/10 03:29:43;;;;;;;0.20;0.20;;;5.80;99.90;;;;;;5064207;28;20021;-76
2023/04/10 03:32:08;;;;;;;0.10;0.10;;;5.90;99.90;;;;;;5054501;28;20398;-76
2023/04/10 03:34:34;;;;;;;0.10;0.10;;;5.90;99.90;;;;;;5054952;28;20060;-75
2023/04/10 03:36:59;;;;;;;0.10;0.10;;;5.80;99.90;;;;;;5059178;28;20066;-76
2023/04/10 03:39:25;;;;;;;0.22;0.22;;;5.80;99.90;;;;;;5056801;28;20089;-76
2023/04/10 03:41:50;;;;;;;0.17;0.17;;;5.80;99.90;;;;;;5056190;28;20051;-76
2023/04/10 03:44:19;;;;;;;0.10;0.10;;;5.70;99.90;;;;;;5036647;28;20501;-76
2023/04/10 03:46:44;;;;;;;0.20;0.20;;;5.70;99.90;;;;;;5057004;28;20040;-77
2023/04/10 03:49:10;;;;;;;0.15;0.15;;;5.70;99.90;;;;;;5069733;28;20028;-76
2023/04/10 03:51:35;;;;;;;0.20;0.20;;;5.70;99.90;;;;;;5056176;28;20552;-76
2023/04/10 03:54:01;;;;;;;0.10;0.10;;;5.60;99.90;;;;;;5056328;28;20029;-76
2023/04/10 03:56:26;;;;;;;0.20;0.20;;;5.60;99.90;;;;;;5056564;28;20018;-75
2023/04/10 03:58:52;;;;;;;0.10;0.10;;;5.60;99.90;;;;;;5056336;28;20104;-76
2023/04/10 04:01:17;;;;;;;0.10;0.10;;;5.60;99.90;;;;;;5056026;28;20032;-76
2023/04/10 04:03:43;;;;;;;0.15;0.15;;;5.60;99.90;;;;;;5059060;28;20464;-76
2023/04/10 04:06:08;;;;;;;0.10;0.10;;;5.60;99.90;;;;;;5063954;28;20597;-76
2023/04/10 04:08:35;;;;;;;0.20;0.20;;;5.60;99.90;;;;;;5062372;28;20024;-76
2023/04/10 04:11:00;;;;;;;0.13;0.13;;;5.60;99.90;;;;;;5061307;28;20537;-76
2023/04/10 04:13:26;;;;;;;0.20;0.20;;;5.50;99.90;;;;;;5071999;28;20036;-76
2023/04/10 04:15:51;;;;;;;0.10;0.10;;;5.50;99.90;;;;;;5071388;28;20021;-76
2023/04/10 04:18:17;;;;;;;0.20;0.20;;;5.50;99.90;;;;;;5062452;28;20024;-76
2023/04/10 04:20:43;;;;;;;0.20;0.20;;;5.50;99.90;;;;;;5055672;28;20032;-76
2023/04/10 04:23:08;;;;;;;0.20;0.20;;;5.50;99.90;;;;;;5059727;28;20041;-76
2023/04/10 04:25:34;;;;;;;0.20;0.20;;;5.50;99.90;;;;;;5067055;28;20108;-75
2023/04/10 04:28:00;;;;;;;0.10;0.10;;;5.50;99.90;;;;;;5054193;28;20032;-76
2023/04/10 04:30:25;;;;;;;0.10;0.10;;;5.50;99.90;;;;;;5055722;28;20028;-76
2023/04/10 04:32:51;;;;;;;0.20;0.20;;;5.50;99.90;;;;;;5062611;22;20041;-76
2023/04/10 04:35:16;;;;;;;0.20;0.20;;;5.50;99.90;;;;;;5037304;28;20049;-76
2023/04/10 04:37:42;;;;;;;0.20;0.20;;;5.50;99.90;;;;;;5052668;28;20104;-76
2023/04/10 04:40:08;;;;;;;0.20;0.20;;;5.50;99.90;;;;;;5032461;28;20085;-76
2023/04/10 04:42:33;;;;;;;0.20;0.20;;;5.50;99.90;;;;;;5035424;28;20025;-76
2023/04/10 04:44:59;;;;;;;0.20;0.20;;;5.50;99.90;;;;;;5035435;28;20495;-76
2023/04/10 04:47:24;;;;;;;0.10;0.10;;;5.50;99.90;;;;;;5035815;28;20076;-76
2023/04/10 04:49:50;;;;;;;0.20;0.20;;;5.50;99.90;;;;;;5017402;28;20029;-75
2023/04/10 04:52:15;;;;;;;0.20;0.20;;;5.50;99.90;;;;;;5035500;28;20537;-76
2023/04/10 04:54:41;;;;;;;0.10;0.10;;;5.50;99.90;;;;;;5035407;28;20017;-76
2023/04/10 04:57:06;;;;;;;0.20;0.20;;;5.60;99.90;;;;;;5035128;28;20495;-76
2023/04/10 04:59:32;;;;;;;0.20;0.20;;;5.60;99.90;;;;;;5046939;28;20027;-75
2023/04/10 05:01:57;;;;;;;0.20;0.20;;;5.60;99.90;;;;;;5057242;28;20031;-75
2023/04/10 05:04:23;;;;;;;0.20;0.20;;;5.70;99.90;;;;;;5059588;28;20420;-76
2023/04/10 05:06:49;;;;;;;0.20;0.20;;;5.70;99.90;;;;;;5055102;28;20029;-76
2023/04/10 05:09:15;;;;;;;0.10;0.10;;;5.80;99.90;;;;;;5054929;28;20533;-76
2023/04/10 05:11:40;;;;;;;0.20;0.20;;;5.80;99.90;;;;;;5037043;28;20025;-75
2023/04/10 05:14:06;;;;;;;0.20;0.20;;;5.80;99.90;;;;;;5054604;28;20028;-75
2023/04/10 05:16:31;;;;;;;0.20;0.20;;;5.90;99.90;;;;;;5055304;28;20032;-76
2023/04/10 05:18:57;;;;;;;0.20;0.20;;;6.00;99.90;;;;;;5067065;28;20593;-76
2023/04/10 05:21:23;;;;;;;0.20;0.20;;;6.00;99.90;;;;;;5043550;28;20032;-76
2023/04/10 05:23:48;;;;;;;0.10;0.10;;;6.00;99.90;;;;;;5035016;28;20079;-76
2023/04/10 05:26:14;;;;;;;0.20;0.20;;;6.10;99.90;;;;;;5034434;28;20033;-77
2023/04/10 05:28:39;;;;;;;0.20;0.20;;;6.10;99.90;;;;;;5042361;28;20086;-76
2023/04/10 05:31:05;;;;;;;0.20;0.20;;;6.20;99.90;;;;;;5039112;28;20029;-76
2023/04/10 05:33:33;;;;;;;0.10;0.10;;;6.20;99.90;;;;;;5034734;28;20116;-77
2023/04/10 05:35:58;;;;;;;0.17;0.17;;;6.20;99.90;;;;;;5016722;28;20077;-77
2023/04/10 05:38:24;;;;;;;0.10;0.10;;;6.20;99.90;;;;;;5034626;28;20033;-77
2023/04/10 05:40:49;;;;;;;0.20;0.20;;;6.30;99.90;;;;;;5030048;28;20047;-77
2023/04/10 05:43:15;;;;;;;0.20;0.20;;;6.30;99.90;;;;;;5062833;22;20041;-76
2023/04/10 05:45:44;;;;;;;0.20;0.20;;;6.30;99.90;;;;;;5036133;28;20064;-77
2023/04/10 05:48:09;;;;;;;0.20;0.20;;;6.40;99.90;;;;;;5054398;28;20041;-77
2023/04/10 05:50:35;;;;;;;0.15;0.15;;;6.40;99.90;;;;;;5048548;28;20032;-77
2023/04/10 05:53:00;;;;;;;0.20;0.20;;;6.50;99.90;;;;;;5054148;28;20024;-77
2023/04/10 05:55:26;;;;;;;0.20;0.20;;;6.50;99.90;;;;;;5053647;28;20032;-77
2023/04/10 05:57:52;;;;;;;0.10;0.10;;;6.60;99.90;;;;;;5034454;28;20050;-77
2023/04/10 06:00:18;;;;;;;0.20;0.20;;;6.60;99.90;;;;;;5054313;28;20099;-77
2023/04/10 06:02:47;;;;;;;0.30;0.30;;;6.70;99.90;;;;;;5061205;22;20134;-77
2023/04/10 06:05:12;;;;;;;0.17;0.17;;;6.70;99.90;;;;;;5054507;28;20025;-77
2023/04/10 06:07:38;;;;;;;0.10;0.10;;;6.70;99.90;;;;;;5054658;28;20036;-78
2023/04/10 06:10:04;;;;;;;0.20;0.20;;;6.70;99.90;;;;;;5054755;28;20155;-77
2023/04/10 06:12:29;;;;;;;0.10;0.10;;;6.70;99.90;;;;;;5054570;28;20044;-77
2023/04/10 06:14:55;;;;;;;0.20;0.20;;;6.70;99.90;;;;;;5054211;28;20021;-77
2023/04/10 06:17:20;;;;;;;0.20;0.20;;;6.80;99.90;;;;;;5041269;28;20025;-77
2023/04/10 06:19:46;;;;;;;0.10;0.10;;;6.80;99.90;;;;;;5034159;28;20067;-77
2023/04/10 06:22:12;;;;;;;0.13;0.13;;;6.80;99.90;;;;;;5048163;22;20041;-77
2023/04/10 06:24:37;;;;;;;0.20;0.20;;;6.80;99.90;;;;;;5015009;28;20065;-77
2023/04/10 06:27:03;;;;;;;0.13;0.13;;;6.80;99.90;;;;;;5014187;28;20095;-77
2023/04/10 06:29:28;;;;;;;0.17;0.17;;;6.90;99.90;;;;;;5012422;28;20026;-77
2023/04/10 06:31:54;;;;;;;0.20;0.20;;;6.90;99.90;;;;;;5051517;23;20044;-75
2023/04/10 06:34:20;;;;;;;0.20;0.20;;;6.90;99.90;;;;;;5056012;28;20112;-74
2023/04/10 06:36:45;;;;;;;0.20;0.20;;;7.00;99.90;;;;;;5056142;28;20066;-75
2023/04/10 06:39:11;;;;;;;0.10;0.10;;;7.10;99.90;;;;;;5055318;28;20096;-75
2023/04/10 06:41:36;;;;;;;0.10;0.10;;;7.20;99.90;;;;;;5037490;28;20384;-74
2023/04/10 06:44:02;;;;;;;0.20;0.20;;;7.30;99.90;;;;;;5055482;28;20538;-74
2023/04/10 06:46:27;;;;;;;0.20;0.20;;;7.40;99.90;;;;;;5055683;28;20035;-75
2023/04/10 06:48:53;;;;;;;0.10;0.10;;;7.50;99.90;;;;;;5055164;28;20025;-75
2023/04/10 06:51:18;;;;;;;0.20;0.20;;;7.60;99.90;;;;;;5037397;28;20029;-75
2023/04/10 06:53:44;;;;;;;0.10;0.10;;;7.80;99.90;;;;;;5055737;28;20398;-75
2023/04/10 06:56:10;;;;;;;0.17;0.17;;;7.90;99.90;;;;;;5037366;28;20021;-75
2023/04/10 06:58:35;;;;;;;0.17;0.17;;;8.10;99.90;;;;;;5055171;28;20059;-75
2023/04/10 07:01:03;;;;;;;0.10;0.10;;;8.30;99.90;;;;;;5055091;28;20085;-75
2023/04/10 07:03:29;;;;;;;0.17;0.17;;;8.50;99.90;;;;;;5037433;28;20058;-74
2023/04/10 07:05:55;;;;;;;0.30;0.30;;;8.80;99.90;;;;;;5055780;28;20104;-74
2023/04/10 07:08:21;;;;;;;0.20;0.20;;;9.10;99.90;;;;;;5054984;28;20126;-74
2023/04/10 07:10:51;;;;;;;0.17;0.17;;;9.30;99.90;;;;;;5040714;28;20490;-74
2023/04/10 07:13:17;;;;;;;0.10;0.10;;;9.60;99.90;;;;;;5058863;28;20028;-74
2023/04/10 07:15:43;;;;;;;0.20;0.20;;;9.80;99.90;;;;;;5059473;28;20414;-74
2023/04/10 07:18:08;;;;;;;0.20;0.20;;;10.00;99.90;;;;;;5059102;28;20031;-75
2023/04/10 07:20:34;;;;;;;0.22;0.22;;;10.20;99.90;;;;;;5059195;28;20096;-74
2023/04/10 07:22:59;;;;;;;0.10;0.10;;;10.40;99.90;;;;;;5059164;28;20021;-74
2023/04/10 07:25:25;;;;;;;0.15;0.15;;;10.70;99.90;;;;;;5041147;28;20082;-74
2023/04/10 07:27:50;;;;;;;0.20;0.20;;;10.80;99.90;;;;;;5058909;28;20025;-74
2023/04/10 07:30:16;;;;;;;0.20;0.20;;;11.10;99.90;;;;;;5059304;28;20029;-74
2023/04/10 07:32:43;;;;;;;0.10;0.10;;;11.10;99.90;;;;;;5058562;28;20044;-74
2023/04/10 07:35:09;;;;;;;0.20;0.20;;;11.20;99.90;;;;;;5040899;28;20054;-74
2023/04/10 07:37:35;;;;;;;0.20;0.20;;;11.20;99.90;;;;;;5041126;28;20449;-74
2023/04/10 07:40:01;;;;;;;0.22;0.22;;;11.30;99.90;;;;;;5058567;28;20023;-74
2023/04/10 07:42:26;;;;;;;0.20;0.20;;;11.10;99.90;;;;;;5058868;28;20398;-74
2023/04/10 07:44:52;;;;;;;0.20;0.20;;;11.20;99.90;;;;;;5040632;28;20036;-74
2023/04/10 07:47:17;;;;;;;0.10;0.10;;;11.10;99.90;;;;;;5059292;28;20025;-75
2023/04/10 07:49:43;;;;;;;0.20;0.20;;;11.10;99.90;;;;;;5059010;28;20441;-74
2023/04/10 07:52:09;;;;;;;0.17;0.17;;;11.00;99.90;;;;;;5040347;28;20033;-74
2023/04/10 07:54:39;;;;;;;0.10;0.10;;;11.00;99.90;;;;;;5058673;28;20071;-74
2023/04/10 07:57:05;;;;;;;0.20;0.20;;;11.00;99.90;;;;;;5056040;28;20086;-74
2023/04/10 07:59:30;;;;;;;0.20;0.20;;;11.00;99.90;;;;;;5058261;28;20017;-74
2023/04/10 08:01:56;;;;;;;0.20;0.20;;;11.00;99.90;;;;;;5058102;28;20059;-74
2023/04/10 08:04:21;;;;;;;0.20;0.20;;;11.10;99.90;;;;;;5059166;28;20397;-74
2023/04/10 08:06:48;;;;;;;0.10;0.10;;;11.20;99.90;;;;;;5078289;28;20028;-74
2023/04/10 08:09:14;;;;;;;0.17;0.17;;;11.20;99.90;;;;;;5078463;28;20027;-75
2023/04/10 08:11:39;;;;;;;0.10;0.10;;;11.40;99.90;;;;;;5077885;28;20095;-74
2023/04/10 08:14:05;;;;;;;0.20;0.20;;;11.70;99.90;;;;;;5078615;28;20028;-75
2023/04/10 08:16:33;;;;;;;0.20;0.20;;;12.10;99.90;;;;;;5078292;28;20017;-74
2023/04/10 08:18:59;;;;;;;0.20;0.20;;;12.50;99.90;;;;;;5059803;28;20016;-75
2023/04/10 08:21:26;;;;;;;0.20;0.20;;;12.80;99.90;;;;;;5058183;28;20115;-75
2023/04/10 08:23:53;;;;;;;0.10;0.10;;;13.00;99.90;;;;;;5058197;28;20021;-75
2023/04/10 08:26:20;;;;;;;0.10;0.10;;;13.10;99.90;;;;;;5068071;28;20028;-75
2023/04/10 08:28:50;;;;;;;0.13;0.13;;;13.30;99.90;;;;;;5060171;28;20028;-74
2023/04/10 08:31:20;;;;;;;0.10;0.10;;;13.40;99.90;;;;;;5077206;28;20036;-75
2023/04/10 08:33:46;;;;;;;0.20;0.20;;;13.50;99.90;;;;;;5077403;28;20024;-74
2023/04/10 08:36:14;;;;;;;0.10;0.10;;;13.50;99.90;;;;;;5077792;28;20393;-75
2023/04/10 08:38:40;;;;;;;0.17;0.17;;;13.70;99.90;;;;;;5059614;28;20386;-75
2023/04/10 08:41:08;;;;;;;0.20;0.20;;;13.80;99.90;;;;;;5057280;28;20021;-74
2023/04/10 08:43:34;;;;;;;0.10;0.10;;;14.20;99.90;;;;;;5057428;28;20024;-75
2023/04/10 08:46:01;;;;;;;0.20;0.20;;;14.20;99.90;;;;;;5057192;28;20029;-75
2023/04/10 08:48:39;;;;;;;0.10;0.10;;;14.20;99.90;;;;;;5040059;28;20040;-75
2023/04/10 08:51:07;;;;;;;0.20;0.20;;;14.30;99.90;;;;;;5039479;28;20494;-75
2023/04/10 08:53:38;;;;;;;0.20;0.20;;;14.50;99.90;;;;;;5057069;28;20033;-75
2023/04/10 08:56:05;;;;;;;0.10;0.10;;;14.60;99.90;;;;;;5074038;28;20024;-74
2023/04/10 08:58:31;;;;;;;0.20;0.20;;;14.80;99.90;;;;;;5077122;28;20485;-74
2023/04/10 09:00:57;;;;;;;0.20;0.20;;;14.50;99.90;;;;;;5051903;28;20096;-75
2023/04/10 09:03:23;;;;;;;0.20;0.20;;;14.50;99.90;;;;;;5037078;28;20030;-75
2023/04/10 09:05:49;;;;;;;0.10;0.10;;;14.60;99.90;;;;;;5037437;28;20053;-75
2023/04/10 09:08:15;;;;;;;0.10;0.10;;;14.80;99.90;;;;;;5037469;28;20030;-75
2023/04/10 09:10:40;;;;;;;0.20;0.20;;;15.00;99.90;;;;;;5040809;28;20075;-75
2023/04/10 09:13:06;;;;;;;0.20;0.20;;;15.20;99.90;;;;;;5057028;28;20031;-75
2023/04/10 09:15:56;;;;;;;0.13;0.13;;;15.30;99.90;;;;;;5056802;28;20075;-76
2023/04/10 09:18:21;;;;;;;0.20;0.20;;;15.50;99.90;;;;;;5052274;28;20027;-75
2023/04/10 09:20:50;;;;;;;0.10;0.10;;;15.60;99.90;;;;;;5076832;28;20107;-76
2023/04/10 09:23:20;;;;;;;0.20;0.20;;;15.60;99.90;;;;;;5076209;28;20029;-75
2023/04/10 09:25:46;;;;;;;0.20;0.20;;;15.60;99.90;;;;;;5073003;28;20108;-75
2023/04/10 09:28:14;;;;;;;0.10;0.10;;;15.80;99.90;;;;;;5056346;28;20104;-75
2023/04/10 09:30:41;;;;;;;0.10;0.10;;;16.00;99.90;;;;;;5038454;28;20533;-75
2023/04/10 09:33:26;;;;;;;0.20;0.20;;;16.10;99.90;;;;;;5037927;28;20549;-75
2023/04/10 09:35:53;;;;;;;0.10;0.10;;;16.20;99.90;;;;;;5038191;28;20021;-76
2023/04/10 09:38:20;;;;;;;0.20;0.20;;;16.20;99.90;;;;;;5056412;28;20025;-75
2023/04/10 09:40:47;;;;;;;0.20;0.20;;;16.40;99.90;;;;;;5056472;28;20040;-76
2023/04/10 09:43:31;;;;;;;0.20;0.20;;;16.60;99.90;;;;;;5056320;28;20021;-75
2023/04/10 09:45:57;;;;;;;;;;;16.70;99.90;;;;;;5056546;28;20052;-75
2023/04/10 09:48:26;;;;;;;0.20;0.20;;;16.60;99.90;;;;;;5055943;28;19905;-74
2023/04/10 09:50:52;;;;;;;0.17;0.17;;;16.50;99.90;;;;;;5055993;28;20566;-75
2023/04/10 09:53:19;;;;;;;0.10;0.10;;;16.60;99.90;;;;;;5055547;28;20053;-75
2023/04/10 09:55:46;;;;;;;0.10;0.10;;;16.90;99.90;;;;;;5056291;28;20021;-75
2023/04/10 09:58:13;;;;;;;0.10;0.10;;;17.00;99.90;;;;;;5056582;28;20103;-75
2023/04/10 10:00:47;;;;;;;0.10;0.10;;;17.20;99.90;;;;;;5056162;28;20025;-75
2023/04/10 10:03:15;;;;;;;0.10;0.10;;;17.20;99.90;;;;;;5055537;28;20029;-75
2023/04/10 10:05:52;;;;;;;0.10;0.10;;;17.30;99.90;;;;;;5055448;28;20029;-76
2023/04/10 10:08:19;;;;;;;0.20;0.20;;;17.10;99.90;;;;;;5055466;28;20045;-75
2023/04/10 10:10:56;;;;;;;0.10;0.10;;;16.90;99.90;;;;;;5055815;28;20029;-75
2023/04/10 10:13:52;;;;;;;0.10;0.10;;;16.90;99.90;;;;;;5055856;28;20017;-76
2023/04/10 10:16:38;;;;;;;0.20;0.20;;;17.10;99.90;;;;;;5064003;28;20096;-76
2023/04/10 10:19:06;;;;;;;0.10;0.10;;;17.20;99.90;;;;;;5075735;28;20025;-75
2023/04/10 10:21:33;;;;;;;0.10;0.10;;;17.20;99.90;;;;;;5075321;28;20541;-75
2023/04/10 10:24:00;;;;;;;0.20;0.20;;;17.40;99.90;;;;;;5059454;28;20040;-76
2023/04/10 10:26:28;;;;;;;0.10;0.10;;;17.60;99.90;;;;;;5055619;28;20017;-76
2023/04/10 10:28:55;;;;;;;0.10;0.10;;;17.70;99.90;;;;;;5037597;28;20039;-76
2023/04/10 10:31:23;;;;;;;0.10;0.10;;;17.70;99.90;;;;;;5037563;28;20402;-75
2023/04/10 10:33:51;;;;;;;0.10;0.10;;;17.70;99.90;;;;;;5045557;28;20089;-76
2023/04/10 10:36:18;;;;;;;0.20;0.20;;;17.80;99.90;;;;;;5074433;28;20017;-76
2023/04/10 10:38:57;;;;;;;0.10;0.10;;;17.60;99.90;;;;;;5057848;28;20028;-76
2023/04/10 10:41:33;;;;;;;0.10;0.10;;;17.80;99.90;;;;;;5057796;28;20028;-76
2023/04/10 10:44:22;;;;;;;0.20;0.20;;;17.90;99.90;;;;;;5056725;28;20425;-75
2023/04/10 10:46:49;;;;;;;0.20;0.20;;;17.40;99.90;;;;;;5057766;28;20059;-76
2023/04/10 10:49:15;;;;;;;0.20;0.20;;;17.80;99.90;;;;;;5074673;28;20029;-76
2023/04/10 10:51:47;;;;;;;0.10;0.10;;;17.90;99.90;;;;;;5055351;28;20039;-76
2023/04/10 10:54:29;;;;;;;0.20;0.20;;;17.70;99.90;;;;;;5055306;28;20036;-75
2023/04/10 10:56:54;;;;;;;0.10;0.10;;;17.70;99.90;;;;;;5066043;28;20028;-75
2023/04/10 10:59:42;;;;;;;0.10;0.10;;;17.70;99.90;;;;;;5057221;28;20017;-75
2023/04/10 11:02:18;;;;;;;0.10;0.10;;;17.80;99.90;;;;;;5075470;28;20040;-76
2023/04/10 11:04:50;;;;;;;0.10;0.10;;;17.90;99.90;;;;;;5075743;28;20479;-76
2023/04/10 11:07:16;;;;;;;0.10;0.10;;;17.90;99.90;;;;;;5072885;28;20024;-76
2023/04/10 11:09:53;;;;;;;0.10;0.10;;;17.70;99.90;;;;;;5055419;28;20059;-76
2023/04/10 11:12:23;;;;;;;0.20;0.20;;;17.80;99.90;;;;;;5054204;28;20028;-76
2023/04/10 11:15:04;;;;;;;0.10;0.10;;;18.00;99.90;;;;;;5054506;28;20032;-76
2023/04/10 11:17:49;;;;;;;0.10;0.10;;;18.30;99.90;;;;;;5037496;28;20082;-76
2023/04/10 11:20:16;;;;;;;0.10;0.10;;;18.00;99.90;;;;;;5036540;28;20083;-76
2023/04/10 11:23:04;;;;;;;0.10;0.10;;;18.10;99.90;;;;;;5036368;28;20487;-76
2023/04/10 11:25:52;;;;;;;0.10;0.10;;;18.00;99.90;;;;;;5055007;28;20025;-76
2023/04/10 11:28:49;;;;;;;0.10;0.10;;;18.30;99.90;;;;;;5055318;28;20413;-76
2023/04/10 11:31:22;;;;;;;0.10;0.10;;;18.30;99.90;;;;;;5035295;28;20517;-76
2023/04/10 11:33:55;;;;;;;0.10;0.10;;;17.90;99.90;;;;;;5055480;28;20392;-76
2023/04/10 11:36:20;;;;;;;0.17;0.17;;;17.80;99.90;;;;;;5055263;28;20100;-76
2023/04/10 11:39:01;;;;;;;0.20;0.20;;;18.10;99.90;;;;;;5054758;28;20076;-76
2023/04/10 11:41:36;;;;;;;0.10;0.10;;;18.30;99.90;;;;;;5036886;28;20025;-76
2023/04/10 11:44:04;;;;;;;0.20;0.20;;;18.40;99.90;;;;;;5055061;28;20471;-76
2023/04/10 11:46:30;;;;;;;0.20;0.20;;;18.50;99.90;;;;;;5036944;28;20482;-76
2023/04/10 11:48:59;;;;;;;0.10;0.10;;;18.50;99.90;;;;;;5054481;28;20132;-76
2023/04/10 11:51:27;;;;;;;0.10;0.10;;;18.60;99.90;;;;;;5054839;28;20074;-77
2023/04/10 11:54:10;;;;;;;0.10;0.10;;;18.60;99.90;;;;;;5054378;28;20017;-76
2023/04/10 11:56:41;;;;;;;0.10;0.10;;;18.40;99.90;;;;;;5057907;28;20083;-76
2023/04/10 11:59:09;;;;;;;0.20;0.20;;;18.40;99.90;;;;;;5060338;28;20033;-76
2023/04/10 12:01:36;;;;;;;0.10;0.10;;;18.60;99.90;;;;;;5078718;28;20481;-76
2023/04/10 12:04:02;;;;;;;0.10;0.10;;;18.90;99.90;;;;;;5077852;28;20032;-76
2023/04/10 12:06:28;;;;;;;0.10;0.10;;;19.10;99.90;;;;;;5077900;28;20028;-76
2023/04/10 12:08:53;;;;;;;0.10;0.10;;;19.30;99.90;;;;;;5078369;28;20055;-76
2023/04/10 12:11:24;;;;;;;0.10;0.10;;;19.50;99.90;;;;;;5060145;28;20024;-76
2023/04/10 12:13:56;;;;;;;0.10;0.10;;;19.40;99.90;;;;;;5060088;28;20080;-76
2023/04/10 12:16:23;;;;;;;0.10;0.10;;;19.10;99.90;;;;;;5078262;28;20032;-76
2023/04/10 12:18:52;;;;;;;0.10;0.10;;;18.90;99.90;;;;;;5063520;28;20508;-76
2023/04/10 12:21:18;;;;;;;0.10;0.10;;;18.80;99.90;;;;;;5057209;28;20040;-76
2023/04/10 12:23:44;;;;;;;0.10;0.10;;;18.60;99.90;;;;;;5039966;28;20111;-76
2023/04/10 12:26:15;;;;;;;0.20;0.20;;;18.60;99.90;;;;;;5058117;28;20095;-76
2023/04/10 12:28:48;;;;;;;0.10;0.10;;;18.40;99.90;;;;;;5058034;28;20491;-76
2023/04/10 12:31:13;;;;;;;0.10;0.10;;;18.60;99.90;;;;;;5057792;28;20363;-75
2023/04/10 12:33:42;;;;;;;0.10;0.10;;;18.30;99.90;;;;;;5083671;23;20075;-78
2023/04/10 12:36:28;;;;;;;0.10;0.10;;;18.20;99.90;;;;;;5083476;28;20028;-78
2023/04/10 12:38:58;;;;;;;0.10;0.10;;;18.00;99.90;;;;;;5065258;28;20017;-77
2023/04/10 12:41:32;;;;;;;0.10;0.10;;;17.70;99.90;;;;;;5082067;28;20028;-78
2023/04/10 12:44:10;;;;;;;0.15;0.15;;;17.60;99.90;;;;;;5114093;22;20183;-77
2023/04/10 12:46:36;;;;;;;0.10;0.10;;;17.70;99.90;;;;;;5061527;28;20020;-77
2023/04/10 12:49:18;;;;;;;0.10;0.10;;;17.90;99.90;;;;;;5061247;28;20036;-77
2023/04/10 12:51:49;;;;;;;0.10;0.10;;;18.10;99.90;;;;;;5044652;28;20033;-79
2023/04/10 12:54:45;;;;;;;0.10;0.10;;;17.70;99.90;;;;;;5044829;28;20024;-79
2023/04/10 12:57:27;;;;;;;0.17;0.17;;;17.70;99.90;;;;;;5054379;28;20399;-77
2023/04/10 12:59:56;;;;;;;0.10;0.10;;;17.80;99.90;;;;;;5057849;28;20078;-77